createdAt,value
2022-07-31T04:12:58.860Z,18.9
2022-07-31T04:15:13.710Z,18.9
2022-07-31T04:17:30.765Z,18.9
2022-07-31T04:19:43.389Z,17.1
2022-07-31T04:21:58.492Z,19.3
2022-07-31T04:24:13.132Z,17.4
2022-07-31T04:26:28.125Z,17.8
2022-07-31T04:28:42.809Z,18.6
2022-07-31T04:33:12.533Z,18.9
2022-07-31T04:35:27.330Z,19.9
2022-07-31T04:37:48.270Z,20.1
2022-07-31T04:40:02.353Z,20.8
2022-07-31T04:42:18.314Z,21
2022-07-31T04:44:33.153Z,20.4
2022-07-31T04:46:49.717Z,20.4
2022-07-31T04:51:19.281Z,19.9
2022-07-31T04:53:34.186Z,19.3
2022-07-31T04:55:49.007Z,20.1
2022-07-31T04:58:03.833Z,20.1
2022-07-31T05:00:32.710Z,19.5
2022-07-31T05:02:47.885Z,20.1
2022-07-31T05:05:02.072Z,19.8
2022-07-31T05:07:17.698Z,22.1
2022-07-31T05:09:32.409Z,20.3
2022-07-31T05:11:47.654Z,20.8
2022-07-31T05:14:02.412Z,19.8
2022-07-31T05:16:17.325Z,20.4
2022-07-31T05:18:32.268Z,19.6
2022-07-31T05:20:47.248Z,19.8
2022-07-31T05:23:06.422Z,21
2022-07-31T05:25:20.639Z,20.9
2022-07-31T05:27:39.027Z,20.6
2022-07-31T05:29:50.306Z,20.1
2022-07-31T05:32:04.691Z,20.1
2022-07-31T05:34:19.995Z,21.3
2022-07-31T05:36:35.101Z,20.6
2022-07-31T05:38:49.822Z,19.2
2022-07-31T05:41:04.644Z,19.6
2022-07-31T05:43:19.443Z,19.7
2022-07-31T05:45:34.285Z,20
2022-07-31T05:47:49.304Z,20.2
2022-07-31T05:50:04.033Z,20.4
2022-07-31T05:52:18.751Z,20.6
2022-07-31T05:54:51.038Z,21
2022-07-31T05:57:05.877Z,21.2
2022-07-31T05:59:20.961Z,22.3
2022-07-31T06:01:35.808Z,22.6
2022-07-31T06:03:53.805Z,21.6
2022-07-31T06:06:08.581Z,22.1
2022-07-31T06:08:23.334Z,22.6
2022-07-31T06:10:38.196Z,22
2022-07-31T06:12:53.242Z,22.8
2022-07-31T06:15:08.103Z,23.3
2022-07-31T06:17:22.739Z,23.9
2022-07-31T06:19:37.571Z,24.8
2022-07-31T06:21:53.795Z,24.4
2022-07-31T06:24:09.932Z,24.6
2022-07-31T06:26:26.170Z,25.5
2022-07-31T06:29:05.074Z,24.9
2022-07-31T06:31:29.282Z,25.8
2022-07-31T06:33:54.298Z,25.4
2022-07-31T06:36:09.219Z,24.9
2022-07-31T06:38:23.922Z,26.1
2022-07-31T06:40:56.846Z,25.4
2022-07-31T06:43:11.722Z,25.3
2022-07-31T06:45:48.810Z,25.1
2022-07-31T06:47:54.154Z,25.1
2022-07-31T06:50:09.125Z,24.8
2022-07-31T06:52:34.779Z,24.8
2022-07-31T06:54:49.560Z,25.8
2022-07-31T06:57:04.666Z,25.6
2022-07-31T06:59:39.537Z,25.6
2022-07-31T07:01:42.831Z,25.3
2022-07-31T07:03:57.660Z,24.3
2022-07-31T07:06:38.727Z,24.2
2022-07-31T07:08:53.440Z,24.5
2022-07-31T07:11:12.080Z,25.3
2022-07-31T07:13:23.538Z,25.2
2022-07-31T07:15:37.943Z,24.8
2022-07-31T07:17:52.803Z,25.1
2022-07-31T07:20:07.682Z,24.6
2022-07-31T07:22:30.177Z,25.5
2022-07-31T07:24:37.342Z,26.1
2022-07-31T07:26:52.165Z,25.5
2022-07-31T07:29:07.077Z,26
2022-07-31T07:31:21.959Z,26.2
2022-07-31T07:33:44.902Z,25.8
2022-07-31T07:36:00.124Z,25.6
2022-07-31T07:38:14.988Z,24.9
2022-07-31T07:40:29.868Z,25
2022-07-31T07:42:44.735Z,24.7
2022-07-31T07:44:59.657Z,25
2022-07-31T07:47:14.433Z,24.3
2022-07-31T07:49:53.395Z,25.6
2022-07-31T07:52:16.081Z,24.7
2022-07-31T07:54:30.573Z,24.9
2022-07-31T07:56:45.388Z,25.1
2022-07-31T07:59:00.297Z,25
2022-07-31T08:01:15.174Z,25
2022-07-31T08:04:21.933Z,24.5
2022-07-31T08:06:36.676Z,24.9
2022-07-31T08:08:51.721Z,24.6
2022-07-31T08:11:06.303Z,23.2
2022-07-31T08:13:21.177Z,24.4
2022-07-31T08:15:36.050Z,24.6
2022-07-31T08:17:50.891Z,21.9
2022-07-31T08:20:05.686Z,23.4
2022-07-31T08:22:20.711Z,23.4
2022-07-31T08:24:35.457Z,23
2022-07-31T08:26:50.290Z,22.5
2022-07-31T08:29:05.225Z,22.6
2022-07-31T08:31:19.925Z,22.6
2022-07-31T08:33:34.760Z,23.2
2022-07-31T08:35:50.313Z,24.8
2022-07-31T08:38:49.905Z,24.1
2022-07-31T08:41:04.868Z,23.4
2022-07-31T08:44:00.974Z,23.1
2022-07-31T08:46:06.363Z,21.6
2022-07-31T08:48:21.232Z,23.2
2022-07-31T08:50:36.265Z,23
2022-07-31T08:52:52.513Z,23.4
2022-07-31T08:55:08.049Z,23.2
2022-07-31T08:57:47.909Z,23.4
2022-07-31T09:00:02.904Z,24.4
2022-07-31T09:02:16.984Z,25
2022-07-31T09:04:32.469Z,27
2022-07-31T09:06:47.258Z,26.3
2022-07-31T09:09:02.136Z,26.9
2022-07-31T09:11:24.136Z,25.7
2022-07-31T09:13:38.886Z,25.7
2022-07-31T09:15:53.753Z,26.1
2022-07-31T09:18:08.730Z,28.8
2022-07-31T09:20:55.559Z,30.3
2022-07-31T09:23:10.482Z,27.5
2022-07-31T09:27:40.188Z,28
2022-07-31T09:29:55.173Z,29.3
2022-07-31T09:32:13.709Z,28.3
2022-07-31T09:34:28.896Z,28.5
2022-07-31T09:36:43.357Z,29.6
2022-07-31T09:38:58.341Z,29.4
2022-07-31T09:41:55.494Z,28.4
2022-07-31T09:44:09.355Z,28.2
2022-07-31T09:46:23.326Z,28.4
2022-07-31T09:48:38.248Z,30.1
2022-07-31T09:50:53.125Z,30.2
2022-07-31T09:53:07.909Z,30
2022-07-31T09:55:22.725Z,30.5
2022-07-31T09:57:37.478Z,30.7
2022-07-31T09:59:52.527Z,30.4
2022-07-31T10:02:06.714Z,30.3
2022-07-31T10:04:22.147Z,29.2
2022-07-31T10:06:37.260Z,29.3
2022-07-31T10:08:51.883Z,28.3
2022-07-31T10:11:06.735Z,29.8
2022-07-31T10:13:21.494Z,30.2
2022-07-31T10:15:36.345Z,29.2
2022-07-31T10:17:51.282Z,30.7
2022-07-31T10:20:08.271Z,29.6
2022-07-31T10:22:23.159Z,29.6
2022-07-31T10:24:37.940Z,30.8
2022-07-31T10:27:14.012Z,31.1
2022-07-31T10:29:32.282Z,29.8
2022-07-31T10:31:43.958Z,29.6
2022-07-31T10:34:14.986Z,29.6
2022-07-31T10:36:29.847Z,30.3
2022-07-31T10:38:44.733Z,29.3
2022-07-31T10:40:59.537Z,28.9
2022-07-31T10:43:14.541Z,29.2
2022-07-31T10:45:29.328Z,29.7
2022-07-31T10:47:48.007Z,30.4
2022-07-31T10:49:59.441Z,30.3
2022-07-31T10:52:14.508Z,29.7
2022-07-31T10:54:38.953Z,29.5
2022-07-31T10:56:53.820Z,29.4
2022-07-31T10:59:16.720Z,29.9
2022-07-31T11:01:31.618Z,29.4
2022-07-31T11:03:46.382Z,29.5
2022-07-31T11:06:19.200Z,29.1
2022-07-31T11:08:34.180Z,30.5
2022-07-31T11:10:52.642Z,29.8
2022-07-31T11:13:07.440Z,29.2
2022-07-31T11:15:22.153Z,30.3
2022-07-31T11:18:32.576Z,29.7
2022-07-31T11:20:44.043Z,30.8
2022-07-31T11:23:19.460Z,30.4
2022-07-31T11:25:36.040Z,30.8
2022-07-31T11:27:58.602Z,30.4
2022-07-31T11:31:00.354Z,30.2
2022-07-31T11:33:15.357Z,30.6
2022-07-31T11:35:30.085Z,30.4
2022-07-31T11:37:59.832Z,30.8
2022-07-31T11:40:14.761Z,30.6
2022-07-31T11:42:32.157Z,30.6
2022-07-31T11:44:59.278Z,30.7
2022-07-31T11:47:56.019Z,30
2022-07-31T11:50:21.435Z,29.4
2022-07-31T11:52:39.277Z,30.1
2022-07-31T11:54:53.897Z,30.4
2022-07-31T11:57:08.792Z,30.3
2022-07-31T12:00:02.908Z,30.9
2022-07-31T12:02:28.928Z,29.7
2022-07-31T12:04:43.753Z,29.5
2022-07-31T12:06:58.509Z,30.4
2022-07-31T12:09:59.992Z,29.8
2022-07-31T12:12:03.434Z,29.4
2022-07-31T12:14:18.478Z,30.4
2022-07-31T12:16:33.130Z,29.1
2022-07-31T12:18:48.171Z,30
2022-07-31T12:21:06.457Z,28.6
2022-07-31T12:23:38.871Z,29.1
2022-07-31T12:25:43.388Z,29.4
2022-07-31T12:27:58.174Z,30.4
2022-07-31T12:30:13.027Z,30.1
2022-07-31T12:32:27.974Z,30.3
2022-07-31T12:34:42.846Z,30
2022-07-31T12:37:14.561Z,29.9
2022-07-31T12:39:54.675Z,30.5
2022-07-31T12:42:08.520Z,27.3
2022-07-31T12:44:23.410Z,27.4
2022-07-31T12:46:38.287Z,29.3
2022-07-31T12:48:53.071Z,29.9
2022-07-31T12:51:08.177Z,29.7
2022-07-31T12:53:34.023Z,29.1
2022-07-31T12:55:48.894Z,30.9
2022-07-31T12:58:03.704Z,29
2022-07-31T13:00:18.606Z,29.6
2022-07-31T13:02:33.572Z,27.3
2022-07-31T13:04:48.348Z,27.3
2022-07-31T13:07:03.467Z,26.8
2022-07-31T13:09:18.075Z,27.4
2022-07-31T13:11:57.984Z,26.6
2022-07-31T13:14:11.418Z,27.6
2022-07-31T13:16:26.332Z,27.3
2022-07-31T13:18:41.219Z,28.7
2022-07-31T13:20:56.098Z,27.8
2022-07-31T13:23:11.237Z,28.4
2022-07-31T13:25:25.952Z,29.4
2022-07-31T13:27:41.432Z,29.4
2022-07-31T13:29:56.065Z,28.9
2022-07-31T13:32:11.056Z,28.6
2022-07-31T13:34:25.939Z,27.4
2022-07-31T13:36:59.966Z,27.1
2022-07-31T13:39:14.802Z,26.7
2022-07-31T13:41:29.963Z,26.9
2022-07-31T13:43:59.488Z,25.7
2022-07-31T13:46:02.103Z,27.1
2022-07-31T13:48:24.672Z,26.4
2022-07-31T13:50:39.638Z,26.3
2022-07-31T13:52:54.387Z,25.8
2022-07-31T13:55:09.214Z,25.9
2022-07-31T13:57:34.708Z,25.4
2022-07-31T13:59:49.414Z,25.6
2022-07-31T14:02:21.491Z,25.3
2022-07-31T14:04:38.590Z,25.1
2022-07-31T14:06:51.684Z,26.1
2022-07-31T14:09:36.993Z,25.1
2022-07-31T14:11:51.771Z,24.8
2022-07-31T14:14:06.613Z,24.9
2022-07-31T14:16:21.554Z,25.1
2022-07-31T14:18:36.375Z,25.3
2022-07-31T14:20:51.091Z,25.1
2022-07-31T14:23:05.924Z,24.5
2022-07-31T14:25:21.002Z,24.6
2022-07-31T14:27:35.902Z,25.1
2022-07-31T14:29:50.649Z,24.3
2022-07-31T14:32:05.669Z,24.4
2022-07-31T14:34:20.415Z,24.4
2022-07-31T14:36:35.244Z,24.8
2022-07-31T14:38:50.011Z,25.7
2022-07-31T14:41:04.897Z,24.5
2022-07-31T14:43:19.787Z,24.4
2022-07-31T14:45:38.741Z,24.6
2022-07-31T14:47:53.268Z,25.4
2022-07-31T14:50:28.179Z,24.7
2022-07-31T14:52:43.018Z,24.4
2022-07-31T14:54:57.881Z,24.4
2022-07-31T14:57:32.361Z,24.3
2022-07-31T14:59:47.002Z,25.5
2022-07-31T15:02:01.923Z,24.3
2022-07-31T15:04:16.662Z,24.4
2022-07-31T15:08:37.008Z,24.3
2022-07-31T15:10:51.995Z,24.8
2022-07-31T15:13:30.093Z,24.5
2022-07-31T15:15:44.922Z,24.4
2022-07-31T15:18:00.090Z,24.8
2022-07-31T15:20:14.514Z,25
2022-07-31T15:22:48.985Z,24.8
2022-07-31T15:25:03.799Z,24.3
2022-07-31T15:27:18.648Z,24.7
2022-07-31T15:30:00.927Z,24.6
2022-07-31T15:32:09.208Z,23.6
2022-07-31T15:34:23.961Z,25.1
2022-07-31T15:36:38.930Z,27.1
2022-07-31T15:38:54.060Z,23.9
2022-07-31T15:41:08.874Z,24.6
2022-07-31T15:43:23.950Z,25.4
2022-07-31T15:45:38.806Z,21.5
2022-07-31T15:47:53.798Z,24.1
2022-07-31T15:50:08.761Z,24.3
2022-07-31T15:52:23.640Z,26
2022-07-31T15:54:38.682Z,24.5
2022-07-31T15:56:53.667Z,24.9
2022-07-31T15:59:08.811Z,24.5
2022-07-31T16:01:23.725Z,25.7
2022-07-31T16:03:53.355Z,26.2
2022-07-31T16:06:09.460Z,24.1
2022-07-31T16:09:37.247Z,24.6
2022-07-31T16:12:22.051Z,24.9
2022-07-31T16:14:37.310Z,24.6
2022-07-31T16:16:52.107Z,24.2
2022-07-31T16:19:07.486Z,24.6
2022-07-31T16:21:22.088Z,24.6
2022-07-31T16:23:37.164Z,24.4
2022-07-31T16:25:52.125Z,24.4
2022-07-31T16:28:06.809Z,24.8
2022-07-31T16:30:48.673Z,24.6
2022-07-31T16:33:03.402Z,24.5
2022-07-31T16:35:18.280Z,23.5
2022-07-31T16:37:50.789Z,23.9
2022-07-31T16:40:06.619Z,24.4
2022-07-31T16:42:21.444Z,24.1
2022-07-31T16:45:06.121Z,24.4
2022-07-31T16:47:20.979Z,24.4
2022-07-31T16:50:09.319Z,24.8
2022-07-31T16:52:24.197Z,23.9
2022-07-31T16:55:18.978Z,23.8
2022-07-31T16:57:47.583Z,23.8
2022-07-31T17:00:02.743Z,24.2
2022-07-31T17:02:47.885Z,24.6
2022-07-31T17:05:35.313Z,23.8
2022-07-31T17:07:51.982Z,23.1
2022-07-31T17:10:07.017Z,23.9
2022-07-31T17:12:21.202Z,23.8
2022-07-31T17:14:36.570Z,23.3
2022-07-31T17:16:51.497Z,23.3
2022-07-31T17:19:06.338Z,23.4
2022-07-31T17:21:32.344Z,23.4
2022-07-31T17:24:00.351Z,23.4
2022-07-31T17:26:20.685Z,23.4
2022-07-31T17:28:29.962Z,23.2
2022-07-31T17:30:45.166Z,23.3
2022-07-31T17:32:59.714Z,23.3
2022-07-31T17:35:31.113Z,22
2022-07-31T17:37:45.870Z,22.6
2022-07-31T17:40:00.753Z,23.1
2022-07-31T17:42:28.531Z,23
2022-07-31T17:44:54.946Z,23.1
2022-07-31T17:48:09.502Z,22.1
2022-07-31T17:50:24.309Z,22.6
2022-07-31T17:52:46.398Z,22.7
2022-07-31T17:55:17.899Z,22.5
2022-07-31T17:57:32.818Z,22.5
2022-07-31T17:59:47.727Z,22.3
2022-07-31T18:02:02.511Z,22.4
2022-07-31T18:04:17.323Z,22.1
2022-07-31T18:06:32.162Z,22.3
2022-07-31T18:08:47.023Z,22
2022-07-31T18:11:11.048Z,22.1
2022-07-31T18:13:30.079Z,22.5
2022-07-31T18:15:44.843Z,22.3
2022-07-31T18:17:59.632Z,21.6
2022-07-31T18:20:14.478Z,21.4
2022-07-31T18:22:34.768Z,21.3
2022-07-31T18:24:44.293Z,21.4
2022-07-31T18:31:36.674Z,21.9
2022-07-31T18:33:52.048Z,22.2
2022-07-31T18:36:06.767Z,21.8
2022-07-31T18:38:21.631Z,20.9
2022-07-31T18:42:51.580Z,21.8
2022-07-31T18:45:06.162Z,21.9
2022-07-31T18:47:21.094Z,21
2022-07-31T18:51:06.019Z,21.4
2022-07-31T18:53:21.189Z,20.9
2022-07-31T18:55:36.004Z,21.3
2022-07-31T18:57:51.231Z,21.4
2022-07-31T19:00:05.852Z,21.7
2022-07-31T19:02:20.742Z,21.5
2022-07-31T19:04:35.642Z,21.6
2022-07-31T19:06:54.159Z,21.7
2022-07-31T19:09:05.348Z,21.6
2022-07-31T19:11:20.114Z,21.9
2022-07-31T19:13:34.961Z,21.6
2022-07-31T19:15:49.794Z,20.8
2022-07-31T19:18:04.658Z,21
2022-07-31T19:20:57.705Z,20.6
2022-07-31T19:23:28.907Z,21.2
2022-07-31T19:25:52.227Z,21.1
2022-07-31T19:28:05.390Z,20.9
2022-07-31T19:30:20.297Z,20.8
2022-07-31T19:32:35.198Z,20.7
2022-07-31T19:34:50.256Z,20.8
2022-07-31T19:37:12.469Z,20.3
2022-07-31T19:39:27.463Z,20.1
2022-07-31T19:41:44.319Z,21
2022-07-31T19:44:13.842Z,20.7
2022-07-31T19:46:43.340Z,20.8
2022-07-31T19:48:59.093Z,20.2
2022-07-31T19:51:13.479Z,21
2022-07-31T19:55:43.185Z,20.7
2022-07-31T19:57:58.044Z,20.4
2022-07-31T20:00:13.113Z,20.3
2022-07-31T20:02:27.810Z,20
2022-07-31T20:04:42.622Z,20.2
2022-07-31T20:06:57.546Z,20.3
2022-07-31T20:09:12.292Z,20.8
2022-07-31T20:11:27.234Z,20.8
2022-07-31T20:13:42.160Z,20.7
2022-07-31T20:16:08.198Z,20.6
2022-07-31T20:18:23.617Z,21.3
2022-07-31T20:21:03.335Z,20.2
2022-07-31T20:23:18.257Z,20.8
2022-07-31T20:25:37.312Z,20.9
2022-07-31T20:27:52.160Z,21.2
2022-07-31T20:30:07.092Z,20.2
2022-07-31T20:32:21.932Z,20.1
2022-07-31T20:34:36.762Z,20.5
2022-07-31T20:37:19.757Z,20.4
2022-07-31T20:39:34.622Z,20.6
2022-07-31T20:41:49.358Z,20.6
2022-07-31T20:44:04.345Z,20.5
2022-07-31T20:46:19.067Z,19.8
2022-07-31T20:48:34.006Z,19.8
2022-07-31T20:50:51.880Z,19.8
2022-07-31T20:53:06.697Z,20.2
2022-07-31T20:55:21.600Z,20
2022-07-31T20:57:36.544Z,20.3
2022-07-31T20:59:51.381Z,20.6
2022-07-31T21:02:06.403Z,19.7
2022-07-31T21:04:21.107Z,20.2
2022-07-31T21:06:36.102Z,19.9
2022-07-31T21:08:50.857Z,20.4
2022-07-31T21:11:05.585Z,20
2022-07-31T21:13:20.424Z,19.8
2022-07-31T21:15:58.378Z,20
2022-07-31T21:18:13.396Z,19.8
2022-07-31T21:20:32.895Z,20
2022-07-31T21:22:52.465Z,19.7
2022-07-31T21:25:07.323Z,20.1
2022-07-31T21:27:22.163Z,19.6
2022-07-31T21:29:36.984Z,19.5
2022-07-31T21:31:51.805Z,19.9
2022-07-31T21:34:06.619Z,20
2022-07-31T21:36:24.241Z,19.8
2022-07-31T21:38:39.134Z,19.8
2022-07-31T21:40:54.022Z,19.8
2022-07-31T21:43:08.823Z,19.6
2022-07-31T21:45:41.213Z,19.5
2022-07-31T21:47:55.459Z,19.9
2022-07-31T21:50:10.105Z,20.1
2022-07-31T21:52:25.227Z,18.9
2022-07-31T21:54:39.865Z,19.6
2022-07-31T21:56:54.681Z,19.6
2022-07-31T21:59:17.264Z,19.8
2022-07-31T22:01:32.226Z,20.5
2022-07-31T22:03:47.024Z,20.1
2022-07-31T22:06:01.855Z,19.8
2022-07-31T22:08:16.677Z,19.9
2022-07-31T22:10:31.678Z,19.9
2022-07-31T22:12:48.342Z,20.1
2022-07-31T22:15:03.224Z,20.3
2022-07-31T22:17:31.360Z,20.4
2022-07-31T22:19:47.287Z,20.1
2022-07-31T22:22:00.997Z,20.3
2022-07-31T22:24:15.808Z,19.9
2022-07-31T22:26:30.753Z,19.9
2022-07-31T22:28:45.611Z,19.8
2022-07-31T22:31:00.468Z,19.8
2022-07-31T22:33:15.421Z,20.1
2022-07-31T22:35:39.641Z,20
2022-07-31T22:37:54.438Z,19.7
2022-07-31T22:40:09.345Z,19.7
2022-07-31T22:42:24.194Z,19.4
2022-07-31T22:45:30.371Z,19.8
2022-07-31T22:47:45.176Z,19.4
2022-07-31T22:50:00.106Z,19.6
2022-07-31T22:52:15.096Z,19.4
2022-07-31T22:54:29.954Z,19.5
2022-07-31T22:56:44.609Z,20.3
2022-07-31T22:58:59.514Z,19.1
2022-07-31T23:01:14.364Z,19.4
2022-07-31T23:03:29.101Z,19.3
2022-07-31T23:06:30.371Z,20.2
2022-07-31T23:08:34.877Z,19.1
2022-07-31T23:10:49.706Z,18.4
2022-07-31T23:13:04.524Z,19.3
2022-07-31T23:15:19.317Z,19.6
2022-07-31T23:17:34.252Z,19.8
2022-07-31T23:19:49.923Z,18.9
2022-07-31T23:22:04.142Z,19.4
2022-07-31T23:24:18.731Z,19.3
2022-07-31T23:26:33.551Z,19.1
2022-07-31T23:28:48.466Z,19.5
2022-07-31T23:31:03.367Z,20.1
2022-07-31T23:33:18.191Z,20.7
2022-07-31T23:35:33.317Z,20.8
2022-07-31T23:37:47.898Z,19.8
2022-07-31T23:40:02.687Z,20
2022-07-31T23:42:17.789Z,19.8
2022-07-31T23:44:32.435Z,20.1
2022-07-31T23:46:47.343Z,19.5
2022-07-31T23:49:02.187Z,19.9
2022-07-31T23:51:17.175Z,20
2022-07-31T23:53:31.816Z,20.3
2022-07-31T23:55:46.702Z,19.7
2022-07-31T23:58:01.635Z,20.1
